Sagittarian — WCY5210 — position and weather

sailwx.info

Track history (hours):
 
Tides and Currents Weather Stations Pressure Air Temp Water Temp Dewpoint Dewpoint Depression Visibility Wind Speed Wind Dir Waves Ship Positions

Sagittarian

Owner: TAURUS MARINE, SAN FRANCISCO, CA. More information available from US FCC via Universal Licensing System and Coast Guard Vessel Documentation Center.

Last reported at 2017-Jul-21 06:41 UTC. Time now 2017-Jul-21 20:45 UTC.
Position N 37°46' W 122°23'.

; draft 3 m.

Type: Towing. MMSI: 366969510.

Date/timePositionNaut miles runAvg speedWind from/ knotsBaromVisibWave heightAir tempDewpointWater temp
2017-Jul-21 06:41N 37°46' W 122°23'1 3.3
2017-Jul-21 06:30N 37°47' W 122°23'4 8.1
2017-Jul-21 06:00N 37°48' W 122°17'0 0.0
2017-Jul-21 05:31N 37°48' W 122°17'0 0.1
2017-Jul-21 05:00N 37°47' W 122°17'0 0.2
2017-Jul-21 04:30N 37°47' W 122°17'0 0.2
2017-Jul-21 04:00N 37°47' W 122°17'0 0.0
2017-Jul-21 03:31N 37°47' W 122°17'0 0.0
2017-Jul-21 03:00N 37°47' W 122°17'0 0.0
2017-Jul-21 02:30N 37°47' W 122°17'0 0.0
2017-Jul-21 02:01N 37°47' W 122°17'0 0.0
2017-Jul-21 01:30N 37°47' W 122°17'0 0.0
2017-Jul-21 01:00N 37°47' W 122°17'0 0.0
2017-Jul-21 00:30N 37°47' W 122°17'0 0.0
2017-Jul-21 00:00N 37°47' W 122°17'0 0.0
2017-Jul-20 23:30N 37°47' W 122°17'0 0.0
2017-Jul-20 20:27N 37°47' W 122°17'0 0.1
2017-Jul-20 20:00N 37°47' W 122°17'1 1.1
2017-Jul-20 19:31N 37°48' W 122°18'3 5.1
2017-Jul-20 19:01N 37°48' W 122°21'3 5.5
2017-Jul-20 18:30N 37°49' W 122°24'1 1.6
2017-Jul-20 18:00N 37°49' W 122°25'0 0.1
2017-Jul-20 17:30N 37°49' W 122°25'0 0.0
2017-Jul-20 17:00N 37°49' W 122°25'0 0.5
2017-Jul-20 16:30N 37°49' W 122°25'0 0.1
2017-Jul-20 16:00N 37°49' W 122°25'3 5.2
2017-Jul-20 15:31N 37°47' W 122°23'1 0.0
2017-Jul-19 23:43N 37°46' W 122°23'1 3.8
2017-Jul-19 23:30N 37°47' W 122°23'611.6
2017-Jul-19 23:00N 37°53' W 122°24'3 5.6
2017-Jul-19 22:30N 37°55' W 122°22'1 1.7
2017-Jul-19 22:00N 37°54' W 122°23'4 6.9
2017-Jul-19 21:30N 37°57' W 122°26'11 7.7
2017-Jul-19 20:02N 38°04' W 122°15'0 0.0
2017-Jul-19 19:48N 38°04' W 122°15'0 0.5
2017-Jul-19 19:27N 38°03' W 122°15'0 0.0
2017-Jul-19 18:59N 38°03' W 122°15'0 0.0
2017-Jul-19 18:30N 38°03' W 122°15'2 0.1
2017-Jul-18 20:26N 38°04' W 122°17'1 1.2
2017-Jul-18 19:54N 38°04' W 122°16'2 0.3
2017-Jul-18 13:30N 38°03' W 122°18'510.0
2017-Jul-18 12:58N 38°01' W 122°24'510.1
2017-Jul-18 12:30N 37°56' W 122°26'510.1
2017-Jul-18 12:00N 37°51' W 122°23'3 6.1
2017-Jul-18 11:30N 37°48' W 122°23'2 3.9
2017-Jul-18 11:00N 37°46' W 122°23'0 0.0
2017-Jul-16 21:00N 37°46' W 122°23'1 2.7
2017-Jul-16 20:31N 37°48' W 122°23'3 6.7
2017-Jul-16 20:00N 37°51' W 122°24'4 7.7
2017-Jul-16 19:31N 37°55' W 122°25'5 7.8
2017-Jul-16 18:51N 38°00' W 122°24'3 8.8
2017-Jul-16 18:29N 38°02' W 122°21'5 9.3
2017-Jul-16 17:59N 38°04' W 122°16'  
Track history (hours):
 
Tides and Currents Weather Stations Pressure Air Temp Water Temp Dewpoint Dewpoint Depression Visibility Wind Speed Wind Dir Waves Ship Positions

Sagittarian

Owner: TAURUS MARINE, SAN FRANCISCO, CA. More information available from US FCC via Universal Licensing System and Coast Guard Vessel Documentation Center.

Last reported at 2017-Jul-21 06:41 UTC. Time now 2017-Jul-21 20:45 UTC.
Position N 37°46' W 122°23'.

; draft 3 m.

Type: Towing. MMSI: 366969510.

Date/timePositionNaut miles runAvg speedWind from/ knotsBaromVisibWave heightAir tempDewpointWater temp
2017-Jul-21 06:41N 37°46' W 122°23'1 3.3
2017-Jul-21 06:30N 37°47' W 122°23'4 8.1
2017-Jul-21 06:00N 37°48' W 122°17'0 0.0
2017-Jul-21 05:31N 37°48' W 122°17'0 0.1
2017-Jul-21 05:00N 37°47' W 122°17'0 0.2
2017-Jul-21 04:30N 37°47' W 122°17'0 0.2
2017-Jul-21 04:00N 37°47' W 122°17'0 0.0
2017-Jul-21 03:31N 37°47' W 122°17'0 0.0
2017-Jul-21 03:00N 37°47' W 122°17'0 0.0
2017-Jul-21 02:30N 37°47' W 122°17'0 0.0
2017-Jul-21 02:01N 37°47' W 122°17'0 0.0
2017-Jul-21 01:30N 37°47' W 122°17'0 0.0
2017-Jul-21 01:00N 37°47' W 122°17'0 0.0
2017-Jul-21 00:30N 37°47' W 122°17'0 0.0
2017-Jul-21 00:00N 37°47' W 122°17'0 0.0
2017-Jul-20 23:30N 37°47' W 122°17'0 0.0
2017-Jul-20 20:27N 37°47' W 122°17'0 0.1
2017-Jul-20 20:00N 37°47' W 122°17'1 1.1
2017-Jul-20 19:31N 37°48' W 122°18'3 5.1
2017-Jul-20 19:01N 37°48' W 122°21'3 5.5
2017-Jul-20 18:30N 37°49' W 122°24'1 1.6
2017-Jul-20 18:00N 37°49' W 122°25'0 0.1
2017-Jul-20 17:30N 37°49' W 122°25'0 0.0
2017-Jul-20 17:00N 37°49' W 122°25'0 0.5
2017-Jul-20 16:30N 37°49' W 122°25'0 0.1
2017-Jul-20 16:00N 37°49' W 122°25'3 5.2
2017-Jul-20 15:31N 37°47' W 122°23'1 0.0
2017-Jul-19 23:43N 37°46' W 122°23'1 3.8
2017-Jul-19 23:30N 37°47' W 122°23'611.6
2017-Jul-19 23:00N 37°53' W 122°24'3 5.6
2017-Jul-19 22:30N 37°55' W 122°22'1 1.7
2017-Jul-19 22:00N 37°54' W 122°23'4 6.9
2017-Jul-19 21:30N 37°57' W 122°26'11 7.7
2017-Jul-19 20:02N 38°04' W 122°15'0 0.0
2017-Jul-19 19:48N 38°04' W 122°15'0 0.5
2017-Jul-19 19:27N 38°03' W 122°15'0 0.0
2017-Jul-19 18:59N 38°03' W 122°15'0 0.0
2017-Jul-19 18:30N 38°03' W 122°15'2 0.1
2017-Jul-18 20:26N 38°04' W 122°17'1 1.2
2017-Jul-18 19:54N 38°04' W 122°16'2 0.3
2017-Jul-18 13:30N 38°03' W 122°18'510.0
2017-Jul-18 12:58N 38°01' W 122°24'510.1
2017-Jul-18 12:30N 37°56' W 122°26'510.1
2017-Jul-18 12:00N 37°51' W 122°23'3 6.1
2017-Jul-18 11:30N 37°48' W 122°23'2 3.9
2017-Jul-18 11:00N 37°46' W 122°23'0 0.0
2017-Jul-16 21:00N 37°46' W 122°23'1 2.7
2017-Jul-16 20:31N 37°48' W 122°23'3 6.7
2017-Jul-16 20:00N 37°51' W 122°24'4 7.7
2017-Jul-16 19:31N 37°55' W 122°25'5 7.8
2017-Jul-16 18:51N 38°00' W 122°24'3 8.8
2017-Jul-16 18:29N 38°02' W 122°21'5 9.3
2017-Jul-16 17:59N 38°04' W 122°16'  

Dump ship's entire track history